createdAt,value
2019-06-26T00:00:54.454Z,1009.63
2019-06-26T00:01:54.432Z,1009.63
2019-06-26T00:02:54.447Z,1009.65
2019-06-26T00:03:54.404Z,1009.62
2019-06-26T00:04:54.403Z,1009.60
2019-06-26T00:05:54.382Z,1009.59
2019-06-26T00:06:54.380Z,1009.60
2019-06-26T00:07:54.363Z,1009.55
2019-06-26T00:08:54.372Z,1009.59
2019-06-26T00:09:54.344Z,1009.58
2019-06-26T00:10:54.340Z,1009.61
2019-06-26T00:11:54.324Z,1009.56
2019-06-26T00:12:54.314Z,1009.58
2019-06-26T00:13:54.304Z,1009.55
2019-06-26T00:14:54.283Z,1009.57
2019-06-26T00:15:54.294Z,1009.56
2019-06-26T00:16:54.263Z,1009.53
2019-06-26T00:17:54.258Z,1009.56
2019-06-26T00:18:54.258Z,1009.59
2019-06-26T00:19:54.237Z,1009.57
2019-06-26T00:20:54.238Z,1009.60
2019-06-26T00:21:54.210Z,1009.56
2019-06-26T00:22:54.194Z,1009.61
2019-06-26T00:23:54.183Z,1009.63
2019-06-26T00:24:54.196Z,1009.55
2019-06-26T00:25:54.167Z,1009.60
2019-06-26T00:26:54.160Z,1009.56
2019-06-26T00:27:54.138Z,1009.58
2019-06-26T00:28:54.134Z,1009.53
2019-06-26T00:29:54.142Z,1009.56
2019-06-26T00:30:54.123Z,1009.60
2019-06-26T00:31:54.104Z,1009.54
2019-06-26T00:32:54.109Z,1009.54
2019-06-26T00:33:54.067Z,1009.56
2019-06-26T00:34:54.063Z,1009.55
2019-06-26T00:35:54.066Z,1009.55
2019-06-26T00:36:54.062Z,1009.57
2019-06-26T00:37:54.049Z,1009.55
2019-06-26T00:38:54.015Z,1009.56
2019-06-26T00:39:54.003Z,1009.55
2019-06-26T00:40:53.999Z,1009.57
2019-06-26T00:41:54.001Z,1009.62
2019-06-26T00:42:54.017Z,1009.59
2019-06-26T00:43:53.961Z,1009.57
2019-06-26T00:44:53.947Z,1009.58
2019-06-26T00:45:53.936Z,1009.58
2019-06-26T00:46:53.928Z,1009.60
2019-06-26T00:47:53.921Z,1009.60
2019-06-26T00:48:53.946Z,1009.58
2019-06-26T00:49:53.892Z,1009.58
2019-06-26T00:50:53.881Z,1009.59
2019-06-26T00:51:53.880Z,1009.60
2019-06-26T00:52:53.866Z,1009.58
2019-06-26T00:53:53.897Z,1009.66
2019-06-26T00:54:53.850Z,1009.66
2019-06-26T00:55:55.256Z,1009.65
2019-06-26T00:56:53.813Z,1009.67
2019-06-26T00:57:53.803Z,1009.67
2019-06-26T00:58:53.800Z,1009.72
2019-06-26T00:59:53.799Z,1009.71
2019-06-26T01:00:53.823Z,1009.75
2019-06-26T01:01:53.757Z,1009.71
2019-06-26T01:02:53.750Z,1009.74
2019-06-26T01:03:53.739Z,1009.72
2019-06-26T01:04:53.747Z,1009.75
2019-06-26T01:05:53.741Z,1009.72
2019-06-26T01:06:53.735Z,1009.73
2019-06-26T01:07:53.708Z,1009.73
2019-06-26T01:08:53.688Z,1009.73
2019-06-26T01:09:53.675Z,1009.70
2019-06-26T01:10:53.666Z,1009.69
2019-06-26T01:11:53.646Z,1009.67
2019-06-26T01:12:53.665Z,1009.69
2019-06-26T01:13:58.054Z,1009.71
2019-06-26T01:14:53.615Z,1009.68
2019-06-26T01:15:53.609Z,1009.72
2019-06-26T01:16:53.612Z,1009.69
2019-06-26T01:17:53.585Z,1009.68
2019-06-26T01:18:53.592Z,1009.70
2019-06-26T01:19:53.585Z,1009.65
2019-06-26T01:20:53.553Z,1009.66
2019-06-26T01:21:53.540Z,1009.66
2019-06-26T01:22:53.524Z,1009.63
2019-06-26T01:23:53.519Z,1009.69
2019-06-26T01:24:53.517Z,1009.65
2019-06-26T01:25:53.507Z,1009.70
2019-06-26T01:26:53.500Z,1009.67
2019-06-26T01:27:53.490Z,1009.71
2019-06-26T01:28:53.458Z,1009.73
2019-06-26T01:29:53.450Z,1009.76
2019-06-26T01:30:53.438Z,1009.76
2019-06-26T01:31:53.434Z,1009.71
2019-06-26T01:32:53.430Z,1009.72
2019-06-26T01:33:53.425Z,1009.70
2019-06-26T01:34:53.418Z,1009.70
2019-06-26T01:35:53.381Z,1009.73
2019-06-26T01:36:53.369Z,1009.70
2019-06-26T01:37:53.390Z,1009.71
2019-06-26T01:38:53.358Z,1009.74
2019-06-26T01:39:53.362Z,1009.72
2019-06-26T01:40:53.325Z,1009.72
2019-06-26T01:41:53.319Z,1009.75
2019-06-26T01:42:53.327Z,1009.75
2019-06-26T01:43:53.316Z,1009.75
2019-06-26T01:44:53.297Z,1009.72
2019-06-26T01:45:53.281Z,1009.72
2019-06-26T01:46:53.261Z,1009.72
2019-06-26T01:47:53.290Z,1009.78
2019-06-26T01:48:53.246Z,1009.77
2019-06-26T01:49:53.241Z,1009.78
2019-06-26T01:50:53.220Z,1009.76
2019-06-26T01:51:53.204Z,1009.69
2019-06-26T01:52:53.196Z,1009.70
2019-06-26T01:53:53.214Z,1009.69
2019-06-26T01:54:53.173Z,1009.70
2019-06-26T01:55:53.161Z,1009.70
2019-06-26T01:56:53.149Z,1009.74
2019-06-26T01:57:53.148Z,1009.74
2019-06-26T01:58:53.125Z,1009.76
2019-06-26T01:59:53.130Z,1009.78
2019-06-26T02:00:53.124Z,1009.79
2019-06-26T02:01:53.107Z,1009.79
2019-06-26T02:02:53.084Z,1009.80
2019-06-26T02:03:53.082Z,1009.79
2019-06-26T02:04:53.092Z,1009.79
2019-06-26T02:05:53.062Z,1009.77
2019-06-26T02:06:53.081Z,1009.74
2019-06-26T02:07:53.106Z,1009.75
2019-06-26T02:08:53.023Z,1009.76
2019-06-26T02:09:53.018Z,1009.74
2019-06-26T02:10:53.000Z,1009.75
2019-06-26T02:11:52.981Z,1009.76
2019-06-26T02:12:52.988Z,1009.73
2019-06-26T02:13:52.960Z,1009.76
2019-06-26T02:14:52.981Z,1009.77
2019-06-26T02:15:52.967Z,1009.76
2019-06-26T02:16:52.941Z,1009.77
2019-06-26T02:17:52.930Z,1009.73
2019-06-26T02:18:52.905Z,1009.69
2019-06-26T02:19:52.898Z,1009.75
2019-06-26T02:20:52.884Z,1009.71
2019-06-26T02:21:52.888Z,1009.69
2019-06-26T02:22:52.866Z,1009.69
2019-06-26T02:23:52.850Z,1009.66
2019-06-26T02:24:52.841Z,1009.68
2019-06-26T02:25:52.847Z,1009.68
2019-06-26T02:26:52.845Z,1009.66
2019-06-26T02:27:52.807Z,1009.67
2019-06-26T02:28:52.797Z,1009.65
2019-06-26T02:29:52.795Z,1009.64
2019-06-26T02:30:52.773Z,1009.68
2019-06-26T02:31:52.778Z,1009.64
2019-06-26T02:32:52.752Z,1009.65
2019-06-26T02:33:52.739Z,1009.65
2019-06-26T02:34:52.726Z,1009.65
2019-06-26T02:35:52.731Z,1009.64
2019-06-26T02:36:52.726Z,1009.67
2019-06-26T02:37:52.699Z,1009.67
2019-06-26T02:38:52.685Z,1009.63
2019-06-26T02:39:52.674Z,1009.67
2019-06-26T02:40:52.666Z,1009.62
2019-06-26T02:41:52.694Z,1009.60
2019-06-26T02:42:52.661Z,1009.64
2019-06-26T02:43:52.626Z,1009.63
2019-06-26T02:44:54.386Z,1009.62
2019-06-26T02:45:52.608Z,1009.58
2019-06-26T02:46:52.594Z,1009.59
2019-06-26T02:47:52.625Z,1009.63
2019-06-26T02:48:52.569Z,1009.65
2019-06-26T02:49:52.560Z,1009.65
2019-06-26T02:50:52.551Z,1009.66
2019-06-26T02:51:52.543Z,1009.66
2019-06-26T02:52:52.541Z,1009.63
2019-06-26T02:53:52.541Z,1009.68
2019-06-26T02:54:52.525Z,1009.68
2019-06-26T02:55:52.495Z,1009.66
2019-06-26T02:56:52.500Z,1009.62
2019-06-26T02:57:52.495Z,1009.62
2019-06-26T02:58:52.460Z,1009.63
2019-06-26T02:59:52.456Z,1009.68
2019-06-26T03:00:52.442Z,1009.65
2019-06-26T03:01:52.425Z,1009.75
2019-06-26T03:02:52.429Z,1009.75
2019-06-26T03:03:52.423Z,1009.81
2019-06-26T03:04:52.426Z,1009.77
2019-06-26T03:05:52.393Z,1009.75
2019-06-26T03:06:52.372Z,1009.74
2019-06-26T03:07:52.364Z,1009.72
2019-06-26T03:08:52.392Z,1009.71
2019-06-26T03:09:52.336Z,1009.74
2019-06-26T03:10:52.338Z,1009.76
2019-06-26T03:11:52.331Z,1009.72
2019-06-26T03:12:52.305Z,1009.74
2019-06-26T03:13:52.297Z,1009.77
2019-06-26T03:15:07.761Z,1009.74
2019-06-26T03:15:53.271Z,1009.76
2019-06-26T03:16:52.258Z,1009.74
2019-06-26T03:17:55.696Z,1009.73
2019-06-26T03:18:52.238Z,1009.71
2019-06-26T03:19:52.228Z,1009.74
2019-06-26T03:20:52.227Z,1009.74
2019-06-26T03:21:52.201Z,1009.75
2019-06-26T03:22:52.206Z,1009.73
2019-06-26T03:23:52.189Z,1009.75
2019-06-26T03:24:52.210Z,1009.79
2019-06-26T03:25:52.159Z,1009.80
2019-06-26T03:26:52.147Z,1009.83
2019-06-26T03:27:52.138Z,1009.84
2019-06-26T03:28:52.148Z,1009.83
2019-06-26T03:29:52.128Z,1009.87
2019-06-26T03:30:52.120Z,1009.84
2019-06-26T03:31:52.095Z,1009.87
2019-06-26T03:32:52.090Z,1009.85
2019-06-26T03:33:52.074Z,1009.87
2019-06-26T03:34:52.088Z,1009.87
2019-06-26T03:35:52.056Z,1009.87
2019-06-26T03:36:52.039Z,1009.88
2019-06-26T03:37:52.037Z,1009.92
2019-06-26T03:38:52.015Z,1009.92
2019-06-26T03:39:52.020Z,1009.89
2019-06-26T03:40:52.005Z,1009.92
2019-06-26T03:41:52.010Z,1009.93
2019-06-26T03:42:51.981Z,1009.96
2019-06-26T03:43:51.964Z,1009.91
2019-06-26T03:44:51.950Z,1009.94
2019-06-26T03:45:51.947Z,1009.95
2019-06-26T03:46:51.958Z,1009.97
2019-06-26T03:47:51.913Z,1009.99
2019-06-26T03:48:51.903Z,1009.97
2019-06-26T03:49:51.899Z,1009.95
2019-06-26T03:50:51.889Z,1010.00
2019-06-26T03:51:51.877Z,1010.05
2019-06-26T03:52:51.894Z,1009.98
2019-06-26T03:53:51.847Z,1009.96
2019-06-26T03:54:51.836Z,1009.99
2019-06-26T03:55:51.841Z,1009.96
2019-06-26T03:56:51.816Z,1009.98
2019-06-26T03:57:51.829Z,1009.98
2019-06-26T03:58:51.804Z,1009.99
2019-06-26T03:59:51.780Z,1010.01
2019-06-26T04:00:51.786Z,1010.03
2019-06-26T04:01:51.759Z,1010.00
2019-06-26T04:02:51.747Z,1009.98
2019-06-26T04:03:51.759Z,1009.99
2019-06-26T04:04:51.897Z,1009.94
2019-06-26T04:05:51.726Z,1009.98
2019-06-26T04:06:51.708Z,1010.01
2019-06-26T04:07:51.692Z,1009.98
2019-06-26T04:08:51.705Z,1010.01
2019-06-26T04:09:51.669Z,1009.98
2019-06-26T04:10:51.664Z,1009.98
2019-06-26T04:11:51.658Z,1010.01
2019-06-26T04:12:51.639Z,1010.01
2019-06-26T04:13:51.626Z,1009.99
2019-06-26T04:14:51.633Z,1010.05
2019-06-26T04:15:51.606Z,1010.00
2019-06-26T04:16:51.594Z,1010.04
2019-06-26T04:17:51.599Z,1010.07
2019-06-26T04:18:51.583Z,1010.09
2019-06-26T04:19:51.557Z,1010.03
2019-06-26T04:20:51.551Z,1010.07
2019-06-26T04:21:51.580Z,1010.07
2019-06-26T04:22:51.528Z,1010.10
2019-06-26T04:23:51.540Z,1010.11
2019-06-26T04:24:51.510Z,1010.14
2019-06-26T04:25:51.495Z,1010.08
2019-06-26T04:26:51.487Z,1010.10
2019-06-26T04:27:51.513Z,1010.13
2019-06-26T04:28:51.475Z,1010.14
2019-06-26T04:29:51.447Z,1010.15
2019-06-26T04:30:51.444Z,1010.18
2019-06-26T04:31:51.425Z,1010.19
2019-06-26T04:32:51.416Z,1010.18
2019-06-26T04:33:51.421Z,1010.22
2019-06-26T04:34:54.414Z,1010.22
2019-06-26T04:35:51.409Z,1010.23
2019-06-26T04:36:51.385Z,1010.21
2019-06-26T04:37:51.375Z,1010.25
2019-06-26T04:38:51.346Z,1010.25
2019-06-26T04:39:51.358Z,1010.29
2019-06-26T04:40:51.337Z,1010.22
2019-06-26T04:41:51.314Z,1010.27
2019-06-26T04:42:51.333Z,1010.25
2019-06-26T04:43:51.291Z,1010.27
2019-06-26T04:44:51.287Z,1010.34
2019-06-26T04:45:58.091Z,1010.28
2019-06-26T04:46:52.260Z,1010.26
2019-06-26T04:47:51.276Z,1010.23
2019-06-26T04:48:51.283Z,1010.25
2019-06-26T04:49:51.230Z,1010.25
2019-06-26T04:50:51.215Z,1010.22
2019-06-26T04:51:51.205Z,1010.23
2019-06-26T04:52:51.232Z,1010.21
2019-06-26T04:53:51.182Z,1010.20
2019-06-26T04:54:51.180Z,1010.22
2019-06-26T04:55:51.160Z,1010.23
2019-06-26T04:56:51.149Z,1010.22
2019-06-26T04:57:51.176Z,1010.26
2019-06-26T04:58:51.141Z,1010.27
2019-06-26T04:59:51.129Z,1010.28
2019-06-26T05:00:51.105Z,1010.29
2019-06-26T05:01:51.104Z,1010.30
2019-06-26T05:02:51.116Z,1010.22
2019-06-26T05:03:51.078Z,1010.27
2019-06-26T05:04:51.081Z,1010.32
2019-06-26T05:05:51.050Z,1010.29
2019-06-26T05:06:51.043Z,1010.24
2019-06-26T05:07:53.727Z,1010.22
2019-06-26T05:08:51.023Z,1010.24
2019-06-26T05:09:51.031Z,1010.18
2019-06-26T05:10:50.997Z,1010.21
2019-06-26T05:11:50.989Z,1010.24
2019-06-26T05:12:50.975Z,1010.24
2019-06-26T05:13:50.972Z,1010.24
2019-06-26T05:14:50.959Z,1010.24
2019-06-26T05:15:51.026Z,1010.20
2019-06-26T05:16:50.934Z,1010.21
2019-06-26T05:17:50.923Z,1010.23
2019-06-26T05:18:50.912Z,1010.20
2019-06-26T05:19:50.910Z,1010.20
2019-06-26T05:20:50.898Z,1010.24
2019-06-26T05:21:50.934Z,1010.22
2019-06-26T05:22:50.874Z,1010.24
2019-06-26T05:23:50.860Z,1010.22
2019-06-26T05:24:50.860Z,1010.25
2019-06-26T05:25:50.842Z,1010.25
2019-06-26T05:26:50.828Z,1010.28
2019-06-26T05:27:50.834Z,1010.26
2019-06-26T05:28:50.807Z,1010.30
2019-06-26T05:29:54.308Z,1010.28
2019-06-26T05:30:50.795Z,1010.32
2019-06-26T05:31:50.919Z,1010.30
2019-06-26T05:32:50.775Z,1010.29
2019-06-26T05:33:50.754Z,1010.32
2019-06-26T05:34:50.744Z,1010.19
2019-06-26T05:35:50.732Z,1010.26
2019-06-26T05:36:50.724Z,1010.31
2019-06-26T05:37:50.746Z,1010.32
2019-06-26T05:38:50.707Z,1010.30
2019-06-26T05:39:53.850Z,1010.32
2019-06-26T05:40:50.680Z,1010.35
2019-06-26T05:41:50.671Z,1010.40
2019-06-26T05:42:50.674Z,1010.42
2019-06-26T05:43:50.657Z,1010.36
2019-06-26T05:44:50.641Z,1010.35
2019-06-26T05:45:50.656Z,1010.39
2019-06-26T05:46:50.617Z,1010.39
2019-06-26T05:47:50.620Z,1010.38
2019-06-26T05:48:50.597Z,1010.43
2019-06-26T05:49:50.594Z,1010.44
2019-06-26T05:50:50.580Z,1010.41
2019-06-26T05:51:50.584Z,1010.42
2019-06-26T05:52:50.586Z,1010.42
2019-06-26T05:53:50.546Z,1010.41
2019-06-26T05:54:50.536Z,1010.44
2019-06-26T05:55:50.535Z,1010.42
2019-06-26T05:56:50.519Z,1010.45
2019-06-26T05:57:50.505Z,1010.49
2019-06-26T05:58:50.512Z,1010.46
2019-06-26T05:59:50.528Z,1010.54
2019-06-26T06:00:50.478Z,1010.56
2019-06-26T06:01:50.509Z,1010.47
2019-06-26T06:02:53.701Z,1010.55
2019-06-26T06:03:50.471Z,1010.52
2019-06-26T06:04:50.433Z,1010.52
2019-06-26T06:05:50.447Z,1010.60
2019-06-26T06:06:50.430Z,1010.60
2019-06-26T06:07:50.423Z,1010.61
2019-06-26T06:08:50.397Z,1010.60
2019-06-26T06:09:50.401Z,1010.64
2019-06-26T06:10:50.374Z,1010.65
2019-06-26T06:11:50.362Z,1010.59
2019-06-26T06:12:50.353Z,1010.65
2019-06-26T06:13:50.363Z,1010.69
2019-06-26T06:14:50.386Z,1010.67
2019-06-26T06:15:50.334Z,1010.67
2019-06-26T06:16:50.317Z,1010.72
2019-06-26T06:17:50.331Z,1010.68
2019-06-26T06:18:50.294Z,1010.70
2019-06-26T06:19:50.284Z,1010.66
2019-06-26T06:20:50.304Z,1010.78
2019-06-26T06:21:50.263Z,1010.73
2019-06-26T06:22:50.253Z,1010.72
2019-06-26T06:23:50.243Z,1010.74
2019-06-26T06:24:50.244Z,1010.78
2019-06-26T06:25:50.231Z,1010.78
2019-06-26T06:26:50.240Z,1010.80
2019-06-26T06:27:50.221Z,1010.81
2019-06-26T06:28:50.208Z,1010.80
2019-06-26T06:29:50.186Z,1010.81
2019-06-26T06:30:50.203Z,1010.79
2019-06-26T06:31:50.167Z,1010.79
2019-06-26T06:32:50.166Z,1010.82
2019-06-26T06:33:50.143Z,1010.79
2019-06-26T06:34:50.136Z,1010.87
2019-06-26T06:35:50.124Z,1010.87
2019-06-26T06:36:50.133Z,1010.89
2019-06-26T06:37:50.112Z,1010.87
2019-06-26T06:38:50.117Z,1010.88
2019-06-26T06:39:50.121Z,1010.88
2019-06-26T06:40:50.073Z,1010.92
2019-06-26T06:41:50.067Z,1010.91
2019-06-26T06:42:50.086Z,1010.92
2019-06-26T06:43:50.121Z,1010.99
2019-06-26T06:44:50.042Z,1010.92
2019-06-26T06:45:50.031Z,1010.96
2019-06-26T06:47:03.233Z,1011.02
2019-06-26T06:47:51.085Z,1011.05
2019-06-26T06:48:50.012Z,1010.99
2019-06-26T06:49:49.990Z,1011.02
2019-06-26T06:50:49.989Z,1011.01
2019-06-26T06:51:49.988Z,1011.10
2019-06-26T06:52:49.956Z,1011.07
2019-06-26T06:53:49.978Z,1011.13
2019-06-26T06:54:49.936Z,1011.05
2019-06-26T06:55:49.946Z,1011.08
2019-06-26T06:56:49.920Z,1011.09
2019-06-26T06:57:49.928Z,1011.10
2019-06-26T06:58:49.899Z,1011.12
2019-06-26T06:59:49.888Z,1011.13
2019-06-26T07:00:49.898Z,1011.13
2019-06-26T07:01:49.871Z,1011.16
2019-06-26T07:02:49.860Z,1011.12
2019-06-26T07:03:49.879Z,1011.20
2019-06-26T07:04:49.848Z,1011.20
2019-06-26T07:05:49.844Z,1011.12
2019-06-26T07:06:49.820Z,1011.18
2019-06-26T07:07:49.810Z,1011.22
2019-06-26T07:08:49.800Z,1011.23
2019-06-26T07:09:49.804Z,1011.18
2019-06-26T07:10:49.830Z,1011.20
2019-06-26T07:11:49.771Z,1011.23
2019-06-26T07:12:49.764Z,1011.29
2019-06-26T07:13:49.767Z,1011.26
2019-06-26T07:14:49.768Z,1011.28
2019-06-26T07:15:49.759Z,1011.31
2019-06-26T07:16:49.757Z,1011.32
2019-06-26T07:17:49.723Z,1011.29
2019-06-26T07:18:49.718Z,1011.35
2019-06-26T07:19:49.881Z,1011.30
2019-06-26T07:20:49.719Z,1011.30
2019-06-26T07:21:49.712Z,1011.32
2019-06-26T07:22:49.667Z,1011.33
2019-06-26T07:23:49.661Z,1011.29
2019-06-26T07:24:49.651Z,1011.36
2019-06-26T07:25:49.641Z,1011.36
2019-06-26T07:26:49.636Z,1011.34
2019-06-26T07:27:49.652Z,1011.34
2019-06-26T07:28:49.611Z,1011.33
2019-06-26T07:29:49.612Z,1011.33
2019-06-26T07:30:49.593Z,1011.38
2019-06-26T07:31:49.620Z,1011.40
2019-06-26T07:32:49.575Z,1011.34
2019-06-26T07:33:49.619Z,1011.38
2019-06-26T07:34:49.560Z,1011.36
2019-06-26T07:35:49.546Z,1011.37
2019-06-26T07:36:49.537Z,1011.41
2019-06-26T07:37:49.533Z,1011.43
2019-06-26T07:38:49.595Z,1011.34
2019-06-26T07:39:49.540Z,1011.46
2019-06-26T07:40:49.538Z,1011.45
2019-06-26T07:41:49.488Z,1011.43
2019-06-26T07:42:49.508Z,1011.44
2019-06-26T07:43:49.476Z,1011.44
2019-06-26T07:44:49.465Z,1011.45
2019-06-26T07:45:49.470Z,1011.46
2019-06-26T07:46:49.452Z,1011.48
2019-06-26T07:47:49.433Z,1011.49
2019-06-26T07:48:49.457Z,1011.52
2019-06-26T07:49:49.415Z,1011.51
2019-06-26T07:50:49.407Z,1011.50
2019-06-26T07:51:49.426Z,1011.51
2019-06-26T07:52:49.422Z,1011.52
2019-06-26T07:53:49.383Z,1011.58
2019-06-26T07:54:49.369Z,1011.56
2019-06-26T07:55:49.364Z,1011.56
2019-06-26T07:56:49.401Z,1011.57
2019-06-26T07:57:49.353Z,1011.58
2019-06-26T07:58:49.334Z,1011.51
2019-06-26T07:59:49.332Z,1011.53
2019-06-26T08:00:49.377Z,1011.50
2019-06-26T08:01:49.327Z,1011.55
2019-06-26T08:02:49.312Z,1011.59
2019-06-26T08:03:49.294Z,1011.57
2019-06-26T08:04:49.298Z,1011.62
2019-06-26T08:05:49.307Z,1011.62
2019-06-26T08:06:49.266Z,1011.61
2019-06-26T08:07:49.277Z,1011.63
2019-06-26T08:08:49.243Z,1011.60
2019-06-26T08:09:49.255Z,1011.64
2019-06-26T08:10:49.246Z,1011.59
2019-06-26T08:11:49.221Z,1011.67
2019-06-26T08:12:49.210Z,1011.64
2019-06-26T08:13:49.224Z,1011.64
2019-06-26T08:14:49.190Z,1011.63
2019-06-26T08:15:49.252Z,1011.67
2019-06-26T08:16:49.175Z,1011.67
2019-06-26T08:17:59.760Z,1011.67
2019-06-26T08:18:50.150Z,1011.66
2019-06-26T08:19:49.145Z,1011.65
2019-06-26T08:21:00.732Z,1011.71
2019-06-26T08:21:50.167Z,1011.68
2019-06-26T08:22:49.115Z,1011.73
2019-06-26T08:23:49.106Z,1011.65
2019-06-26T08:24:49.098Z,1011.73
2019-06-26T08:25:49.092Z,1011.72
2019-06-26T08:26:49.081Z,1011.73
2019-06-26T08:27:49.092Z,1011.73
2019-06-26T08:28:49.063Z,1011.72
2019-06-26T08:29:49.058Z,1011.69
2019-06-26T08:30:49.056Z,1011.72
2019-06-26T08:31:49.039Z,1011.74
2019-06-26T08:32:49.048Z,1011.67
2019-06-26T08:33:49.027Z,1011.71
2019-06-26T08:34:49.022Z,1011.73
2019-06-26T08:35:49.004Z,1011.79
2019-06-26T08:36:48.996Z,1011.78
2019-06-26T08:37:48.988Z,1011.82
2019-06-26T08:38:48.973Z,1011.82
2019-06-26T08:39:49.006Z,1011.79
2019-06-26T08:40:48.963Z,1011.85
2019-06-26T08:41:48.943Z,1011.82
2019-06-26T08:42:48.993Z,1011.84
2019-06-26T08:43:48.933Z,1011.83
2019-06-26T08:44:48.940Z,1011.80
2019-06-26T08:45:48.932Z,1011.78
2019-06-26T08:46:48.900Z,1011.78
2019-06-26T08:47:48.914Z,1011.81
2019-06-26T08:48:51.832Z,1011.78
2019-06-26T08:49:48.886Z,1011.82
2019-06-26T08:50:48.865Z,1011.79
2019-06-26T08:51:48.867Z,1011.80
2019-06-26T08:52:48.880Z,1011.84
2019-06-26T08:53:48.837Z,1011.85
2019-06-26T08:54:48.833Z,1011.87
2019-06-26T08:55:48.818Z,1011.89
2019-06-26T08:56:48.821Z,1011.82
2019-06-26T08:57:48.816Z,1011.84
2019-06-26T08:58:48.835Z,1011.86
2019-06-26T08:59:48.783Z,1011.85
2019-06-26T09:00:48.786Z,1011.81
2019-06-26T09:01:48.767Z,1011.86
2019-06-26T09:02:48.795Z,1011.83
2019-06-26T09:03:48.762Z,1011.85
2019-06-26T09:04:48.762Z,1011.86
2019-06-26T09:05:48.902Z,1011.80
2019-06-26T09:06:48.723Z,1011.85
2019-06-26T09:07:48.848Z,1011.85
2019-06-26T09:08:48.721Z,1011.84
2019-06-26T09:09:48.701Z,1011.86
2019-06-26T09:10:48.699Z,1011.89
2019-06-26T09:11:48.678Z,1011.86
2019-06-26T09:12:48.721Z,1011.94
2019-06-26T09:13:48.674Z,1011.90
2019-06-26T09:14:48.688Z,1011.91
2019-06-26T09:15:50.106Z,1011.86
2019-06-26T09:16:48.649Z,1011.91
2019-06-26T09:17:48.627Z,1011.88
2019-06-26T09:18:48.626Z,1011.88
2019-06-26T09:19:48.611Z,1011.90
2019-06-26T09:20:48.621Z,1011.87
2019-06-26T09:21:48.611Z,1011.79
2019-06-26T09:22:48.602Z,1011.94
2019-06-26T09:23:48.581Z,1011.89
2019-06-26T09:24:48.584Z,1011.86
2019-06-26T09:25:48.577Z,1011.83
2019-06-26T09:26:48.553Z,1011.87
2019-06-26T09:27:48.563Z,1011.93
2019-06-26T09:28:48.545Z,1011.98
2019-06-26T09:29:48.527Z,1011.84
2019-06-26T09:30:48.521Z,1011.89
2019-06-26T09:31:48.520Z,1011.92
2019-06-26T09:32:48.512Z,1011.92
2019-06-26T09:33:48.499Z,1011.84
2019-06-26T09:34:48.485Z,1011.92
2019-06-26T09:35:48.476Z,1011.93
2019-06-26T09:36:48.517Z,1011.91
2019-06-26T09:37:48.457Z,1011.88
2019-06-26T09:38:48.445Z,1011.92
2019-06-26T09:39:48.450Z,1011.88
2019-06-26T09:40:48.435Z,1011.94
2019-06-26T09:41:48.435Z,1012.00
2019-06-26T09:42:48.425Z,1012.08
2019-06-26T09:43:48.421Z,1012.05
2019-06-26T09:44:48.396Z,1012.07
2019-06-26T09:45:48.401Z,1012.04
2019-06-26T09:46:48.377Z,1012.03
2019-06-26T09:47:48.414Z,1012.03
2019-06-26T09:48:53.279Z,1011.99
2019-06-26T09:49:49.352Z,1011.99
2019-06-26T09:50:48.364Z,1012.05
2019-06-26T09:51:48.335Z,1012.06
2019-06-26T09:52:48.369Z,1012.12
2019-06-26T09:53:48.312Z,1012.06
2019-06-26T09:54:48.318Z,1012.07
2019-06-26T09:55:48.295Z,1012.07
2019-06-26T09:56:48.289Z,1012.05
2019-06-26T09:57:48.290Z,1011.98
2019-06-26T09:58:48.282Z,1012.01
2019-06-26T09:59:48.259Z,1012.06
2019-06-26T10:00:48.288Z,1012.05
2019-06-26T10:01:48.244Z,1012.03
2019-06-26T10:02:48.234Z,1012.08
2019-06-26T10:03:48.268Z,1012.12
2019-06-26T10:04:48.224Z,1012.06
2019-06-26T10:05:48.207Z,1012.00
2019-06-26T10:06:48.238Z,1012.11
2019-06-26T10:07:48.187Z,1012.05
2019-06-26T10:08:48.180Z,1012.08
2019-06-26T10:09:48.190Z,1012.03
2019-06-26T10:10:48.166Z,1012.08
2019-06-26T10:11:48.175Z,1012.06
2019-06-26T10:12:48.145Z,1012.21
2019-06-26T10:13:48.136Z,1012.13
2019-06-26T10:14:48.287Z,1012.11
2019-06-26T10:15:48.121Z,1012.12
2019-06-26T10:16:48.153Z,1012.19
2019-06-26T10:17:48.114Z,1012.11
2019-06-26T10:18:48.097Z,1012.13
2019-06-26T10:19:48.083Z,1012.13
2019-06-26T10:20:48.126Z,1012.16
2019-06-26T10:21:48.075Z,1012.13
2019-06-26T10:22:48.072Z,1012.12
2019-06-26T10:23:48.066Z,1012.16
2019-06-26T10:24:48.041Z,1012.13
2019-06-26T10:25:48.032Z,1012.15
2019-06-26T10:26:48.042Z,1012.16
2019-06-26T10:27:48.014Z,1012.01
2019-06-26T10:28:48.023Z,1012.08
2019-06-26T10:29:48.038Z,1012.14
2019-06-26T10:30:47.994Z,1012.18
2019-06-26T10:31:48.024Z,1012.17
2019-06-26T10:32:47.971Z,1012.17
2019-06-26T10:33:47.967Z,1012.13
2019-06-26T10:34:47.954Z,1012.19
2019-06-26T10:35:47.977Z,1012.27
2019-06-26T10:36:47.947Z,1012.15
2019-06-26T10:37:47.964Z,1012.16
2019-06-26T10:38:47.928Z,1012.04
2019-06-26T10:39:47.913Z,1012.19
2019-06-26T10:40:47.898Z,1012.14
2019-06-26T10:41:47.907Z,1012.20
2019-06-26T10:42:47.882Z,1012.19
2019-06-26T10:43:47.902Z,1012.11
2019-06-26T10:44:47.860Z,1012.16
2019-06-26T10:45:47.849Z,1012.15
2019-06-26T10:46:47.857Z,1012.18
2019-06-26T10:47:47.841Z,1012.19
2019-06-26T10:48:47.839Z,1012.10
2019-06-26T10:49:47.815Z,1012.22
2019-06-26T10:50:53.465Z,1012.27
2019-06-26T10:51:48.791Z,1012.25
2019-06-26T10:52:47.781Z,1012.15
2019-06-26T10:53:47.819Z,1012.18
2019-06-26T10:54:47.769Z,1012.26
2019-06-26T10:55:47.759Z,1012.18
2019-06-26T10:56:47.744Z,1012.17
2019-06-26T10:57:47.733Z,1012.12
2019-06-26T10:58:47.810Z,1012.18
2019-06-26T10:59:47.736Z,1012.20
2019-06-26T11:00:47.702Z,1012.19
2019-06-26T11:01:47.720Z,1012.16
2019-06-26T11:02:47.682Z,1012.23
2019-06-26T11:03:47.696Z,1012.11
2019-06-26T11:04:47.685Z,1012.13
2019-06-26T11:05:47.661Z,1012.12
2019-06-26T11:06:47.647Z,1012.03
2019-06-26T11:07:47.631Z,1012.02
2019-06-26T11:08:47.624Z,1012.10
2019-06-26T11:09:47.632Z,1012.02
2019-06-26T11:10:47.604Z,1012.02
2019-06-26T11:11:47.606Z,1012.08
2019-06-26T11:12:49.026Z,1012.06
2019-06-26T11:13:47.578Z,1012.01
2019-06-26T11:14:47.582Z,1012.00
2019-06-26T11:15:47.551Z,1012.08
2019-06-26T11:16:47.547Z,1012.11
2019-06-26T11:17:47.541Z,1012.04
2019-06-26T11:18:47.519Z,1012.12
2019-06-26T11:19:47.511Z,1012.08
2019-06-26T11:20:47.513Z,1012.12
2019-06-26T11:21:47.491Z,1012.10
2019-06-26T11:22:47.481Z,1012.03
2019-06-26T11:23:47.487Z,1012.10
2019-06-26T11:24:47.531Z,1012.18
2019-06-26T11:25:47.484Z,1012.09
2019-06-26T11:26:47.441Z,1012.06
2019-06-26T11:27:47.425Z,1012.16
2019-06-26T11:28:47.421Z,1012.04
2019-06-26T11:29:47.419Z,1012.09
2019-06-26T11:30:47.420Z,1012.12
2019-06-26T11:31:47.411Z,1012.05
2019-06-26T11:32:47.383Z,1012.05
2019-06-26T11:33:47.360Z,1012.09
2019-06-26T11:34:47.352Z,1012.06
2019-06-26T11:35:47.367Z,1012.06
2019-06-26T11:37:02.819Z,1012.02
2019-06-26T11:37:48.347Z,1012.05
2019-06-26T11:38:47.310Z,1012.02
2019-06-26T11:39:47.302Z,1011.99
2019-06-26T11:40:47.288Z,1011.95
2019-06-26T11:41:47.291Z,1012.06
2019-06-26T11:42:47.266Z,1012.03
2019-06-26T11:43:47.300Z,1012.02
2019-06-26T11:44:47.246Z,1011.95
2019-06-26T11:45:47.238Z,1011.96
2019-06-26T11:46:47.224Z,1011.98
2019-06-26T11:47:47.237Z,1011.94
2019-06-26T11:48:47.206Z,1011.99
2019-06-26T11:49:59.273Z,1012.03
2019-06-26T11:50:48.185Z,1011.95
2019-06-26T11:51:47.202Z,1012.03
2019-06-26T11:52:47.168Z,1011.92
2019-06-26T11:53:47.169Z,1011.93
2019-06-26T11:55:01.348Z,1011.96
2019-06-26T11:55:48.150Z,1012.02
2019-06-26T11:56:47.125Z,1011.98
2019-06-26T11:57:47.168Z,1011.92
2019-06-26T11:58:47.108Z,1011.88
2019-06-26T11:59:47.108Z,1011.87
2019-06-26T12:00:47.086Z,1011.82
2019-06-26T12:01:47.107Z,1011.99
2019-06-26T12:02:47.082Z,1011.89
2019-06-26T12:03:47.089Z,1011.89
2019-06-26T12:04:47.054Z,1011.88
2019-06-26T12:05:47.040Z,1011.75